createdAt,value
2019-01-17T00:00:44.326Z,-0.50
2019-01-17T00:03:23.897Z,-0.50
2019-01-17T00:05:54.450Z,-0.60
2019-01-17T00:08:28.504Z,-0.70
2019-01-17T00:11:15.086Z,-0.70
2019-01-17T00:13:51.557Z,-0.60
2019-01-17T00:16:28.098Z,-0.60
2019-01-17T00:19:07.314Z,-0.60
2019-01-17T00:21:37.829Z,-0.60
2019-01-17T00:24:14.073Z,-0.70
2019-01-17T00:26:44.618Z,-0.70
2019-01-17T00:29:17.947Z,-0.80
2019-01-17T00:32:00.065Z,-0.90
2019-01-17T00:34:36.063Z,-0.90
2019-01-17T00:37:09.392Z,-1.00
2019-01-17T00:39:39.953Z,-1.00
2019-01-17T00:42:22.393Z,-1.00
2019-01-17T00:45:01.728Z,-1.00
2019-01-17T00:47:32.252Z,-1.10
2019-01-17T00:50:05.229Z,-1.10
2019-01-17T00:52:38.775Z,-1.10
2019-01-17T00:55:09.893Z,-1.10
2019-01-17T00:57:43.213Z,-1.20
2019-01-17T01:00:32.636Z,-1.10
2019-01-17T01:03:21.342Z,-1.10
2019-01-17T01:05:54.408Z,-1.20
2019-01-17T01:08:26.056Z,-1.20
2019-01-17T01:11:05.625Z,-1.20
2019-01-17T01:13:52.162Z,-1.30
2019-01-17T01:16:27.792Z,-1.20
2019-01-17T01:19:03.883Z,-1.20
2019-01-17T01:21:37.354Z,-1.10
2019-01-17T01:24:20.060Z,-1.00
2019-01-17T01:26:56.301Z,-0.90
2019-01-17T01:29:42.952Z,-0.60
2019-01-17T01:32:19.253Z,-0.50
2019-01-17T01:34:52.571Z,-0.40
2019-01-17T01:37:23.050Z,-0.30
2019-01-17T01:39:53.530Z,-0.30
2019-01-17T01:42:40.227Z,-0.20
2019-01-17T01:45:17.172Z,-0.10
2019-01-17T01:48:03.700Z,0.00
2019-01-17T01:50:40.006Z,0.00
2019-01-17T01:53:09.333Z,0.10
2019-01-17T01:55:38.267Z,0.10
2019-01-17T01:58:07.003Z,0.30
2019-01-17T02:00:36.073Z,0.40
2019-01-17T02:03:05.139Z,0.60
2019-01-17T02:05:34.100Z,0.90
2019-01-17T02:08:03.093Z,1.10
2019-01-17T02:10:32.030Z,1.40
2019-01-17T02:13:01.045Z,1.60
2019-01-17T02:15:30.190Z,1.60
2019-01-17T02:17:59.091Z,1.60
2019-01-17T02:20:28.076Z,1.70
2019-01-17T02:22:57.017Z,1.70
2019-01-17T02:25:25.920Z,1.80
2019-01-17T02:27:54.835Z,2.10
2019-01-17T02:30:23.795Z,2.30
2019-01-17T02:32:52.670Z,2.40
2019-01-17T02:35:21.551Z,2.40
2019-01-17T02:37:50.484Z,2.40
2019-01-17T02:40:19.475Z,2.50
2019-01-17T02:42:48.351Z,2.70
2019-01-17T02:45:17.302Z,2.80
2019-01-17T02:47:46.188Z,2.90
2019-01-17T02:50:15.065Z,3.00
2019-01-17T02:52:44.004Z,3.00
2019-01-17T02:55:12.987Z,3.20
2019-01-17T02:57:41.867Z,3.30
2019-01-17T03:00:18.342Z,3.30
2019-01-17T03:02:47.261Z,3.30
2019-01-17T03:05:16.156Z,3.40
2019-01-17T03:07:45.080Z,3.40
2019-01-17T03:10:16.049Z,3.60
2019-01-17T03:12:44.990Z,3.70
2019-01-17T03:15:14.047Z,3.90
2019-01-17T03:17:42.943Z,4.00
2019-01-17T03:20:13.411Z,4.10
2019-01-17T03:22:42.349Z,4.10
2019-01-17T03:25:11.861Z,4.10
2019-01-17T03:27:41.361Z,3.90
2019-01-17T03:30:13.266Z,3.90
2019-01-17T03:32:42.154Z,3.80
2019-01-17T03:35:12.407Z,3.80
2019-01-17T03:37:41.353Z,3.80
2019-01-17T03:40:13.136Z,3.80
2019-01-17T03:42:44.182Z,3.80
2019-01-17T03:45:14.350Z,3.90
2019-01-17T03:47:43.232Z,4.00
2019-01-17T03:50:13.951Z,3.90
2019-01-17T03:52:43.073Z,3.90
2019-01-17T03:55:14.711Z,3.90
2019-01-17T03:57:43.695Z,3.90
2019-01-17T04:00:17.704Z,3.90
2019-01-17T04:02:46.764Z,3.90
2019-01-17T04:05:15.643Z,4.00
2019-01-17T04:07:44.582Z,4.00
2019-01-17T04:10:15.144Z,4.10
2019-01-17T04:12:44.062Z,4.20
2019-01-17T04:15:14.080Z,4.20
2019-01-17T04:17:43.080Z,4.20
2019-01-17T04:20:14.230Z,4.30
2019-01-17T04:22:43.178Z,4.30
2019-01-17T04:25:12.185Z,4.30
2019-01-17T04:27:41.159Z,4.40
2019-01-17T04:30:15.503Z,4.40
2019-01-17T04:32:44.492Z,4.40
2019-01-17T04:35:13.473Z,4.30
2019-01-17T04:37:42.408Z,4.10
2019-01-17T04:40:13.287Z,4.00
2019-01-17T04:42:42.176Z,3.80
2019-01-17T04:45:13.034Z,3.80
2019-01-17T04:47:41.919Z,3.80
2019-01-17T04:50:13.075Z,3.70
2019-01-17T04:52:42.206Z,3.70
2019-01-17T04:55:13.456Z,3.70
2019-01-17T04:57:42.421Z,3.70
2019-01-17T05:00:14.205Z,3.70
2019-01-17T05:02:43.115Z,3.70
2019-01-17T05:05:12.199Z,3.60
2019-01-17T05:07:41.136Z,3.60
2019-01-17T05:10:12.597Z,3.50
2019-01-17T05:12:41.489Z,3.60
2019-01-17T05:15:11.134Z,3.60
2019-01-17T05:17:40.164Z,3.50
2019-01-17T05:20:11.990Z,3.50
2019-01-17T05:22:40.947Z,3.50
2019-01-17T05:25:12.617Z,3.50
2019-01-17T05:27:40.471Z,3.50
2019-01-17T05:30:12.350Z,3.50
2019-01-17T05:32:41.231Z,3.60
2019-01-17T05:35:10.129Z,3.70
2019-01-17T05:37:39.099Z,3.60
2019-01-17T05:40:19.073Z,3.70
2019-01-17T05:42:48.117Z,3.70
2019-01-17T05:45:17.804Z,3.70
2019-01-17T05:47:46.698Z,3.70
2019-01-17T05:50:19.476Z,3.70
2019-01-17T05:52:48.391Z,3.60
2019-01-17T05:55:20.112Z,3.60
2019-01-17T05:57:47.834Z,3.70
2019-01-17T06:00:19.192Z,3.60
2019-01-17T06:02:48.160Z,3.70
2019-01-17T06:05:18.116Z,3.70
2019-01-17T06:07:46.977Z,3.70
2019-01-17T06:10:15.896Z,3.60
2019-01-17T06:12:44.845Z,3.70
2019-01-17T06:15:16.198Z,3.70
2019-01-17T06:17:45.124Z,3.70
2019-01-17T06:20:16.113Z,3.70
2019-01-17T06:22:45.135Z,3.70
2019-01-17T06:25:14.316Z,3.70
2019-01-17T06:27:43.653Z,3.70
2019-01-17T06:30:14.689Z,3.70
2019-01-17T06:32:43.697Z,3.70
2019-01-17T06:35:12.985Z,3.70
2019-01-17T06:37:41.921Z,3.70
2019-01-17T06:40:13.994Z,3.70
2019-01-17T06:42:43.025Z,3.70
2019-01-17T06:45:11.980Z,3.80
2019-01-17T06:47:40.905Z,3.80
2019-01-17T06:50:10.868Z,4.00
2019-01-17T06:52:39.717Z,4.00
2019-01-17T06:55:08.903Z,4.00
2019-01-17T06:57:37.842Z,4.10
2019-01-17T07:00:12.711Z,4.20
2019-01-17T07:02:41.631Z,4.30
2019-01-17T07:05:11.664Z,4.30
2019-01-17T07:07:40.498Z,4.30
2019-01-17T07:10:14.904Z,4.30
2019-01-17T07:12:43.767Z,4.30
2019-01-17T07:15:12.990Z,4.40
2019-01-17T07:17:41.927Z,4.40
2019-01-17T07:20:13.828Z,4.40
2019-01-17T07:22:42.839Z,4.30
2019-01-17T07:25:12.028Z,4.40
2019-01-17T07:27:40.965Z,4.50
2019-01-17T07:30:12.822Z,4.60
2019-01-17T07:32:41.715Z,4.60
2019-01-17T07:35:10.749Z,4.60
2019-01-17T07:37:39.820Z,4.70
2019-01-17T07:40:10.012Z,4.80
2019-01-17T07:42:38.934Z,4.80
2019-01-17T07:45:11.080Z,4.70
2019-01-17T07:47:39.995Z,4.70
2019-01-17T07:50:10.701Z,4.80
2019-01-17T07:52:39.580Z,4.80
2019-01-17T07:55:09.824Z,4.80
2019-01-17T07:57:38.683Z,4.80
2019-01-17T08:00:10.532Z,4.80
2019-01-17T08:02:39.867Z,4.80
2019-01-17T08:05:08.930Z,4.80
2019-01-17T08:07:38.048Z,4.90
2019-01-17T08:10:09.917Z,4.80
2019-01-17T08:12:38.846Z,4.80
2019-01-17T08:15:09.828Z,4.80
2019-01-17T08:17:38.796Z,4.80
2019-01-17T08:20:13.923Z,4.80
2019-01-17T08:22:42.825Z,4.80
2019-01-17T08:25:12.595Z,4.70
2019-01-17T08:27:41.585Z,4.80
2019-01-17T08:30:24.704Z,4.80
2019-01-17T08:32:53.562Z,4.90
2019-01-17T08:35:22.516Z,4.90
2019-01-17T08:37:51.541Z,4.90
2019-01-17T08:40:25.809Z,5.00
2019-01-17T08:42:54.687Z,5.10
2019-01-17T08:45:23.621Z,5.10
2019-01-17T08:47:52.496Z,5.20
2019-01-17T08:50:21.869Z,5.20
2019-01-17T08:52:51.378Z,5.30
2019-01-17T08:55:20.322Z,5.40
2019-01-17T08:57:49.184Z,5.40
2019-01-17T09:00:20.654Z,5.30
2019-01-17T09:02:49.591Z,5.40
2019-01-17T09:05:18.494Z,5.30
2019-01-17T09:07:47.623Z,5.30
2019-01-17T09:10:21.669Z,5.30
2019-01-17T09:12:51.029Z,5.20
2019-01-17T09:15:22.869Z,5.20
2019-01-17T09:17:51.764Z,5.20
2019-01-17T09:20:20.707Z,5.10
2019-01-17T09:22:50.655Z,5.10
2019-01-17T09:25:19.444Z,5.10
2019-01-17T09:27:48.592Z,5.00
2019-01-17T09:30:19.934Z,5.00
2019-01-17T09:32:48.982Z,5.10
2019-01-17T09:35:19.102Z,5.10
2019-01-17T09:37:48.087Z,5.00
2019-01-17T09:40:21.564Z,5.00
2019-01-17T09:42:50.776Z,5.00
2019-01-17T09:45:19.801Z,5.00
2019-01-17T09:47:48.797Z,4.90
2019-01-17T09:50:19.761Z,4.90
2019-01-17T09:52:48.851Z,4.90
2019-01-17T09:55:17.871Z,4.80
2019-01-17T09:57:46.818Z,4.80
2019-01-17T10:00:21.365Z,4.80
2019-01-17T10:02:50.262Z,4.90
2019-01-17T10:05:19.210Z,4.80
2019-01-17T10:07:48.118Z,4.70
2019-01-17T10:10:21.803Z,4.70
2019-01-17T10:12:50.744Z,4.60
2019-01-17T10:15:23.640Z,4.60
2019-01-17T10:18:10.646Z,4.60
2019-01-17T10:21:03.190Z,4.60
2019-01-17T10:23:54.698Z,4.60
2019-01-17T10:26:54.799Z,4.60
2019-01-17T10:29:41.609Z,4.70
2019-01-17T10:32:16.284Z,4.70
2019-01-17T10:34:59.991Z,4.80
2019-01-17T10:37:40.867Z,4.80
2019-01-17T10:40:28.885Z,4.80
2019-01-17T10:43:06.430Z,4.80
2019-01-17T10:45:43.932Z,4.80
2019-01-17T10:48:33.850Z,4.90
2019-01-17T10:51:22.285Z,4.90
2019-01-17T10:54:09.284Z,4.90
2019-01-17T10:57:08.062Z,5.00
2019-01-17T10:59:39.906Z,5.10
2019-01-17T11:02:26.594Z,5.20
2019-01-17T11:05:03.996Z,5.30
2019-01-17T11:07:41.942Z,5.30
2019-01-17T11:10:28.408Z,5.30
2019-01-17T11:13:03.094Z,5.40
2019-01-17T11:15:43.975Z,5.50
2019-01-17T11:18:18.978Z,5.50
2019-01-17T11:21:08.695Z,5.60
2019-01-17T11:23:52.305Z,5.60
2019-01-17T11:26:41.303Z,5.70
2019-01-17T11:29:13.210Z,5.70
2019-01-17T11:32:02.854Z,5.70
2019-01-17T11:34:37.401Z,5.80
2019-01-17T11:37:45.477Z,5.80
2019-01-17T11:40:20.155Z,5.80
2019-01-17T11:43:21.774Z,5.80
2019-01-17T11:45:53.691Z,5.90
2019-01-17T11:48:28.316Z,5.90
2019-01-17T11:51:06.101Z,5.90
2019-01-17T11:54:03.193Z,5.90
2019-01-17T11:57:03.112Z,5.90
2019-01-17T11:59:35.011Z,5.90
2019-01-17T12:02:18.634Z,5.90
2019-01-17T12:04:46.301Z,5.90
2019-01-17T12:07:17.232Z,5.90
2019-01-17T12:09:46.192Z,5.90
2019-01-17T12:12:16.676Z,6.00
2019-01-17T12:14:45.743Z,5.90
2019-01-17T12:17:14.704Z,5.90
2019-01-17T12:19:43.576Z,5.90
2019-01-17T12:22:12.505Z,6.00
2019-01-17T12:24:41.453Z,5.90
2019-01-17T12:27:11.297Z,5.90
2019-01-17T12:29:40.286Z,5.90
2019-01-17T12:32:09.243Z,5.90
2019-01-17T12:34:38.157Z,5.90
2019-01-17T12:37:07.074Z,5.90
2019-01-17T12:39:36.060Z,6.00
2019-01-17T12:42:05.089Z,6.10
2019-01-17T12:44:33.983Z,6.10
2019-01-17T12:47:02.986Z,6.10
2019-01-17T12:49:31.898Z,6.20
2019-01-17T12:52:00.857Z,6.20
2019-01-17T12:54:29.842Z,6.10
2019-01-17T12:56:58.772Z,6.10
2019-01-17T12:59:27.859Z,6.10
2019-01-17T13:01:57.044Z,6.10
2019-01-17T13:04:25.964Z,6.10
2019-01-17T13:06:54.899Z,6.10
2019-01-17T13:09:24.348Z,6.10
2019-01-17T13:11:53.235Z,6.00
2019-01-17T13:14:22.179Z,6.00
2019-01-17T13:16:51.172Z,6.00
2019-01-17T13:19:20.078Z,6.00
2019-01-17T13:21:49.272Z,6.10
2019-01-17T13:24:18.330Z,6.00
2019-01-17T13:26:47.261Z,6.10
2019-01-17T13:29:17.055Z,6.00
2019-01-17T13:31:46.004Z,6.00
2019-01-17T13:34:14.910Z,6.00
2019-01-17T13:36:43.805Z,6.10
2019-01-17T13:39:12.825Z,6.00
2019-01-17T13:41:41.714Z,6.00
2019-01-17T13:44:10.640Z,6.00
2019-01-17T13:46:39.601Z,6.00
2019-01-17T13:49:08.504Z,6.00
2019-01-17T13:51:37.425Z,6.00
2019-01-17T13:54:06.470Z,6.00
2019-01-17T13:56:35.432Z,6.00
2019-01-17T13:59:04.476Z,6.00
2019-01-17T14:01:33.507Z,6.00
2019-01-17T14:04:02.398Z,6.00
2019-01-17T14:06:32.267Z,5.90
2019-01-17T14:09:01.294Z,6.00
2019-01-17T14:11:31.433Z,6.00
2019-01-17T14:14:00.433Z,5.90
2019-01-17T14:16:30.340Z,5.90
2019-01-17T14:18:59.331Z,6.00
2019-01-17T14:21:28.237Z,6.00
2019-01-17T14:23:57.203Z,6.00
2019-01-17T14:26:26.138Z,5.90
2019-01-17T14:28:55.034Z,5.90
2019-01-17T14:31:24.088Z,5.90
2019-01-17T14:33:52.973Z,5.80
2019-01-17T14:36:21.882Z,5.70
2019-01-17T14:38:50.821Z,5.80
2019-01-17T14:41:19.690Z,6.00
2019-01-17T14:43:48.584Z,6.30
2019-01-17T14:46:17.558Z,6.40
2019-01-17T14:48:47.411Z,6.10
2019-01-17T14:51:16.360Z,6.00
2019-01-17T14:53:45.557Z,5.90
2019-01-17T14:56:15.105Z,5.80
2019-01-17T14:58:43.971Z,5.90
2019-01-17T15:01:12.925Z,6.10
2019-01-17T15:03:41.820Z,6.30
2019-01-17T15:06:10.732Z,6.20
2019-01-17T15:08:39.683Z,6.20
2019-01-17T15:11:08.570Z,6.10
2019-01-17T15:13:37.478Z,5.90
2019-01-17T15:16:06.527Z,5.70
2019-01-17T15:18:35.493Z,5.60
2019-01-17T15:21:04.375Z,5.60
2019-01-17T15:23:33.470Z,5.60
2019-01-17T15:26:02.489Z,5.60
2019-01-17T15:28:31.387Z,5.60
2019-01-17T15:31:00.614Z,5.60
2019-01-17T15:33:29.590Z,5.70
2019-01-17T15:35:58.471Z,5.70
2019-01-17T15:38:27.503Z,5.70
2019-01-17T15:40:56.444Z,5.60
2019-01-17T15:43:25.379Z,5.70
2019-01-17T15:45:54.539Z,5.70
2019-01-17T15:48:23.431Z,5.60
2019-01-17T15:50:52.417Z,5.40
2019-01-17T15:53:21.552Z,5.10
2019-01-17T15:55:50.508Z,4.90
2019-01-17T15:58:22.757Z,4.70
2019-01-17T16:00:52.209Z,4.60
2019-01-17T16:03:21.156Z,4.50
2019-01-17T16:05:50.119Z,4.30
2019-01-17T16:08:19.184Z,4.40
2019-01-17T16:10:48.146Z,4.40
2019-01-17T16:13:17.629Z,4.30
2019-01-17T16:15:46.813Z,4.40
2019-01-17T16:18:16.180Z,4.40
2019-01-17T16:20:45.063Z,4.40
2019-01-17T16:23:14.029Z,4.40
2019-01-17T16:25:42.923Z,4.40
2019-01-17T16:28:11.862Z,4.40
2019-01-17T16:30:40.799Z,4.40
2019-01-17T16:33:09.686Z,4.40
2019-01-17T16:35:38.631Z,4.40
2019-01-17T16:38:07.682Z,4.50
2019-01-17T16:40:36.598Z,4.50
2019-01-17T16:43:05.691Z,4.50
2019-01-17T16:45:35.515Z,4.50
2019-01-17T16:48:04.718Z,4.40
2019-01-17T16:50:33.647Z,4.40
2019-01-17T16:53:02.590Z,4.30
2019-01-17T16:55:31.894Z,4.30
2019-01-17T16:58:01.039Z,4.20
2019-01-17T17:00:33.709Z,4.30
2019-01-17T17:03:02.651Z,4.30
2019-01-17T17:05:31.574Z,4.30
2019-01-17T17:08:00.523Z,4.30
2019-01-17T17:10:29.708Z,4.20
2019-01-17T17:12:58.635Z,4.10
2019-01-17T17:15:28.997Z,4.00
2019-01-17T17:17:57.942Z,3.90
2019-01-17T17:20:27.187Z,3.90
2019-01-17T17:22:56.056Z,4.00
2019-01-17T17:25:24.997Z,4.00
2019-01-17T17:27:55.620Z,4.00
2019-01-17T17:30:26.910Z,4.00
2019-01-17T17:32:55.976Z,3.90
2019-01-17T17:35:24.865Z,3.80
2019-01-17T17:37:53.854Z,3.90
2019-01-17T17:40:27.697Z,3.90
2019-01-17T17:42:56.577Z,4.00
2019-01-17T17:45:25.634Z,4.00
2019-01-17T17:47:54.769Z,4.10
2019-01-17T17:50:24.233Z,4.10
2019-01-17T17:52:53.171Z,4.10
2019-01-17T17:55:22.074Z,4.10
2019-01-17T17:57:51.064Z,4.20
2019-01-17T18:00:23.361Z,4.30
2019-01-17T18:02:52.503Z,4.50
2019-01-17T18:05:21.424Z,4.50
2019-01-17T18:07:50.338Z,4.50
2019-01-17T18:10:19.503Z,4.30
2019-01-17T18:12:48.666Z,4.00
2019-01-17T18:15:19.315Z,4.00
2019-01-17T18:17:48.760Z,3.90
2019-01-17T18:20:18.748Z,3.80
2019-01-17T18:22:47.742Z,3.70
2019-01-17T18:25:16.657Z,3.60
2019-01-17T18:27:45.559Z,3.10
2019-01-17T18:30:20.173Z,3.00
2019-01-17T18:32:49.152Z,2.90
2019-01-17T18:35:18.104Z,3.00
2019-01-17T18:37:47.110Z,3.10
2019-01-17T18:40:18.119Z,3.10
2019-01-17T18:42:47.099Z,3.20
2019-01-17T18:45:21.636Z,2.20
2019-01-17T18:47:50.803Z,1.50
2019-01-17T18:50:22.156Z,1.10
2019-01-17T18:52:51.084Z,1.10
2019-01-17T18:55:20.150Z,1.20
2019-01-17T18:57:49.066Z,1.40
2019-01-17T19:00:22.402Z,1.50
2019-01-17T19:02:51.619Z,1.60
2019-01-17T19:05:21.035Z,1.60
2019-01-17T19:07:50.215Z,1.60
2019-01-17T19:10:20.459Z,1.70
2019-01-17T19:12:49.682Z,1.70
2019-01-17T19:15:26.688Z,1.70
2019-01-17T19:17:55.940Z,1.70
2019-01-17T19:20:25.133Z,1.70
2019-01-17T19:22:54.069Z,1.70
2019-01-17T19:25:23.411Z,1.80
2019-01-17T19:27:52.410Z,1.80
2019-01-17T19:30:23.960Z,1.90
2019-01-17T19:32:52.942Z,1.90
2019-01-17T19:35:22.101Z,1.90
2019-01-17T19:37:51.371Z,2.00
2019-01-17T19:40:22.677Z,2.10
2019-01-17T19:42:51.710Z,2.10
2019-01-17T19:45:20.776Z,2.10
2019-01-17T19:47:49.866Z,2.00
2019-01-17T19:50:32.731Z,2.10
2019-01-17T19:53:01.657Z,2.00
2019-01-17T19:55:30.781Z,2.00
2019-01-17T19:57:59.823Z,2.00
2019-01-17T20:00:28.921Z,2.00
2019-01-17T20:02:58.072Z,2.00
2019-01-17T20:05:29.524Z,2.00
2019-01-17T20:07:58.683Z,2.00
2019-01-17T20:10:32.344Z,1.90
2019-01-17T20:13:01.339Z,1.90
2019-01-17T20:15:30.808Z,1.80
2019-01-17T20:17:59.746Z,1.80
2019-01-17T20:20:31.994Z,1.70
2019-01-17T20:22:59.811Z,1.80
2019-01-17T20:25:28.740Z,1.80
2019-01-17T20:27:57.868Z,1.80
2019-01-17T20:30:28.949Z,1.90
2019-01-17T20:32:59.787Z,1.90
2019-01-17T20:35:29.012Z,1.90
2019-01-17T20:37:58.402Z,1.90
2019-01-17T20:40:27.550Z,1.90
2019-01-17T20:42:56.670Z,1.80
2019-01-17T20:45:26.020Z,1.60
2019-01-17T20:47:55.000Z,1.10
2019-01-17T20:50:29.833Z,0.80
2019-01-17T20:52:59.082Z,0.70
2019-01-17T20:55:28.164Z,0.60
2019-01-17T20:57:57.228Z,0.60
2019-01-17T21:00:41.380Z,0.70
2019-01-17T21:03:12.035Z,0.70
2019-01-17T21:05:41.141Z,0.70
2019-01-17T21:08:10.119Z,0.70
2019-01-17T21:10:39.108Z,0.70
2019-01-17T21:13:08.150Z,0.70
2019-01-17T21:15:37.124Z,0.80
2019-01-17T21:18:06.036Z,0.80
2019-01-17T21:20:34.952Z,0.90
2019-01-17T21:23:04.017Z,0.80
2019-01-17T21:25:32.984Z,0.90
2019-01-17T21:28:01.954Z,0.90
2019-01-17T21:30:30.859Z,0.90
2019-01-17T21:33:06.579Z,0.90
2019-01-17T21:35:31.171Z,0.80
2019-01-17T21:38:00.102Z,0.90
2019-01-17T21:40:29.026Z,0.90
2019-01-17T21:42:57.981Z,0.90
2019-01-17T21:45:26.879Z,0.90
2019-01-17T21:47:55.864Z,1.00
2019-01-17T21:50:33.609Z,0.90
2019-01-17T21:53:02.626Z,0.90
2019-01-17T21:55:31.530Z,0.90
2019-01-17T21:58:00.463Z,0.90
2019-01-17T22:00:30.469Z,0.90
2019-01-17T22:02:59.384Z,0.80
2019-01-17T22:05:28.408Z,0.90
2019-01-17T22:07:57.407Z,0.90
2019-01-17T22:10:26.414Z,0.90
2019-01-17T22:12:55.398Z,1.00
2019-01-17T22:15:25.890Z,0.90
2019-01-17T22:17:55.194Z,1.00
2019-01-17T22:20:24.170Z,0.90
2019-01-17T22:22:53.096Z,1.00
2019-01-17T22:25:22.384Z,1.00
2019-01-17T22:27:52.941Z,0.90
2019-01-17T22:30:27.139Z,0.90
2019-01-17T22:32:56.313Z,1.00
2019-01-17T22:35:25.204Z,0.90
2019-01-17T22:37:54.129Z,1.00
2019-01-17T22:40:23.191Z,0.90
2019-01-17T22:42:52.168Z,0.90
2019-01-17T22:45:26.714Z,0.90
2019-01-17T22:47:55.694Z,0.90
2019-01-17T22:50:24.596Z,1.00
2019-01-17T22:52:53.633Z,0.90
2019-01-17T22:55:22.546Z,0.90
2019-01-17T22:57:51.535Z,0.80
2019-01-17T23:00:42.808Z,0.80
2019-01-17T23:03:11.804Z,0.80
2019-01-17T23:05:40.739Z,0.90
2019-01-17T23:08:10.756Z,0.80
2019-01-17T23:10:39.691Z,0.80
2019-01-17T23:13:08.618Z,0.80
2019-01-17T23:15:37.614Z,0.70
2019-01-17T23:18:06.624Z,0.70
2019-01-17T23:20:35.677Z,0.70
2019-01-17T23:23:04.856Z,0.60
2019-01-17T23:25:33.768Z,0.70
2019-01-17T23:28:02.870Z,0.80
2019-01-17T23:30:31.764Z,0.80
2019-01-17T23:33:00.736Z,0.70
2019-01-17T23:35:29.700Z,0.60
2019-01-17T23:37:58.626Z,0.50
2019-01-17T23:40:27.675Z,0.40
2019-01-17T23:42:56.566Z,0.40
2019-01-17T23:45:25.756Z,0.30
2019-01-17T23:47:54.700Z,0.20
2019-01-17T23:50:23.646Z,0.20
2019-01-17T23:52:52.669Z,0.20
2019-01-17T23:55:21.643Z,0.20
2019-01-17T23:57:50.592Z,0.20
